createdAt,value
2023-03-12T00:01:27.222Z,28.60
2023-03-12T00:03:55.298Z,28.30
2023-03-12T00:06:22.561Z,27.90
2023-03-12T00:08:49.922Z,27.10
2023-03-12T00:11:21.383Z,26.60
2023-03-12T00:13:53.297Z,25.90
2023-03-12T00:16:20.847Z,25.30
2023-03-12T00:18:52.842Z,24.70
2023-03-12T00:21:21.239Z,24.70
2023-03-12T00:23:49.447Z,24.70
2023-03-12T00:26:17.340Z,24.70
2023-03-12T00:28:44.565Z,26.00
2023-03-12T00:31:29.756Z,26.40
2023-03-12T00:33:57.036Z,26.30
2023-03-12T00:36:27.024Z,26.40
2023-03-12T00:38:55.010Z,26.60
2023-03-12T00:41:23.252Z,26.00
2023-03-12T00:43:51.170Z,24.70
2023-03-12T00:46:18.863Z,24.70
2023-03-12T00:48:46.251Z,24.20
2023-03-12T00:51:13.326Z,24.50
2023-03-12T00:53:40.358Z,24.60
2023-03-12T00:56:07.788Z,24.60
2023-03-12T00:58:34.784Z,26.10
2023-03-12T01:01:01.732Z,26.70
2023-03-12T01:03:28.664Z,27.20
2023-03-12T01:05:55.723Z,27.70
2023-03-12T01:08:23.067Z,27.90
2023-03-12T01:10:50.312Z,28.10
2023-03-12T01:13:17.584Z,28.50
2023-03-12T01:15:44.493Z,28.60
2023-03-12T01:18:11.577Z,30.10
2023-03-12T01:20:40.465Z,31.10
2023-03-12T01:23:07.612Z,31.40
2023-03-12T01:25:34.864Z,31.70
2023-03-12T01:28:02.202Z,32.00
2023-03-12T01:30:30.003Z,32.00
2023-03-12T01:32:56.903Z,33.10
2023-03-12T01:35:24.114Z,32.00
2023-03-12T01:37:51.090Z,30.00
2023-03-12T01:40:22.157Z,28.80
2023-03-12T01:42:53.841Z,28.40
2023-03-12T01:46:14.741Z,27.10
2023-03-12T01:49:15.143Z,26.10
2023-03-12T01:51:52.853Z,24.20
2023-03-12T01:54:27.696Z,23.80
2023-03-12T01:56:56.196Z,23.40
2023-03-12T01:59:48.345Z,23.60
2023-03-12T02:02:16.201Z,24.10
2023-03-12T02:04:45.090Z,24.20
2023-03-12T02:07:14.717Z,24.10
2023-03-12T02:09:47.654Z,23.70
2023-03-12T02:12:15.844Z,23.00
2023-03-12T02:14:42.932Z,22.80
2023-03-12T02:17:10.416Z,22.50
2023-03-12T02:20:22.843Z,23.30
2023-03-12T02:23:12.716Z,23.30
2023-03-12T02:25:44.432Z,23.50
2023-03-12T02:28:15.425Z,23.80
2023-03-12T02:30:46.235Z,24.70
2023-03-12T02:33:15.436Z,24.90
2023-03-12T02:35:43.207Z,25.20
2023-03-12T02:38:41.143Z,25.00
2023-03-12T02:41:19.451Z,24.80
2023-03-12T02:43:50.844Z,24.80
2023-03-12T02:46:18.061Z,24.80
2023-03-12T02:48:44.904Z,24.80
2023-03-12T02:51:11.742Z,24.90
2023-03-12T02:53:38.666Z,24.80
2023-03-12T02:56:06.244Z,24.40
2023-03-12T02:58:33.125Z,23.50
2023-03-12T03:01:00.142Z,23.00
2023-03-12T03:03:27.162Z,22.20
2023-03-12T03:05:54.191Z,21.90
2023-03-12T03:08:21.178Z,21.30
2023-03-12T03:10:50.384Z,21.30
2023-03-12T03:13:17.264Z,21.50
2023-03-12T03:15:44.209Z,21.10
2023-03-12T03:18:11.135Z,21.40
2023-03-12T03:20:38.100Z,20.80
2023-03-12T03:23:05.081Z,20.90
2023-03-12T03:25:33.803Z,21.10
2023-03-12T03:28:00.738Z,21.50
2023-03-12T03:30:27.728Z,21.50
2023-03-12T03:32:54.692Z,21.50
2023-03-12T03:35:22.628Z,21.90
2023-03-12T03:37:49.667Z,23.00
2023-03-12T03:40:16.759Z,23.50
2023-03-12T03:42:43.785Z,24.20
2023-03-12T03:45:10.843Z,24.80
2023-03-12T03:47:37.975Z,24.90
2023-03-12T03:50:06.372Z,24.70
2023-03-12T03:52:33.632Z,25.50
2023-03-12T03:55:00.793Z,26.00
2023-03-12T03:57:28.128Z,26.00
2023-03-12T03:59:55.060Z,26.10
2023-03-12T04:02:22.466Z,25.80
2023-03-12T04:04:49.263Z,25.50
2023-03-12T04:07:16.543Z,24.80
2023-03-12T04:09:43.862Z,23.80
2023-03-12T04:12:10.838Z,22.30
2023-03-12T04:14:40.663Z,21.70
2023-03-12T04:17:08.190Z,20.80
2023-03-12T04:19:35.701Z,19.00
2023-03-12T04:22:02.640Z,18.70
2023-03-12T04:24:29.638Z,17.90
2023-03-12T04:26:57.785Z,17.70
2023-03-12T04:29:25.031Z,17.00
2023-03-12T04:31:51.936Z,16.50
2023-03-12T04:34:18.857Z,16.10
2023-03-12T04:36:46.963Z,16.10
2023-03-12T04:39:17.233Z,16.60
2023-03-12T04:41:44.129Z,15.90
2023-03-12T04:44:12.771Z,15.10
2023-03-12T04:46:40.197Z,14.90
2023-03-12T04:49:07.077Z,14.30
2023-03-12T04:51:33.994Z,14.20
2023-03-12T04:54:00.921Z,13.90
2023-03-12T04:56:27.792Z,13.70
2023-03-12T04:58:55.092Z,12.80
2023-03-12T05:01:30.947Z,13.30
2023-03-12T05:03:57.955Z,13.30
2023-03-12T05:06:25.483Z,12.60
2023-03-12T05:08:53.031Z,11.50
2023-03-12T05:11:20.909Z,10.60
2023-03-12T05:13:48.568Z,8.50
2023-03-12T05:16:16.733Z,8.10
2023-03-12T05:18:44.597Z,7.30
2023-03-12T05:21:17.205Z,5.40
2023-03-12T05:23:44.609Z,5.80
2023-03-12T05:26:29.488Z,4.80
2023-03-12T05:28:56.526Z,4.70
2023-03-12T05:31:24.065Z,4.40
2023-03-12T05:33:52.907Z,4.40
2023-03-12T05:36:21.013Z,3.80
2023-03-12T05:38:47.876Z,2.60
2023-03-12T05:41:29.173Z,1.80
2023-03-12T05:43:57.929Z,1.00
2023-03-12T05:46:26.160Z,1.00
2023-03-12T05:48:53.331Z,1.20
2023-03-12T05:51:20.291Z,1.70
2023-03-12T05:53:47.338Z,2.20
2023-03-12T05:56:17.567Z,1.00
2023-03-12T05:58:47.766Z,1.00
2023-03-12T06:01:19.308Z,1.00
2023-03-12T06:03:46.443Z,1.00
2023-03-12T06:06:13.947Z,1.00
2023-03-12T06:08:41.560Z,1.00
2023-03-12T06:11:09.907Z,1.00
2023-03-12T06:13:36.959Z,1.00
2023-03-12T06:16:11.495Z,1.00
2023-03-12T06:18:38.458Z,1.00
2023-03-12T06:21:20.177Z,1.00
2023-03-12T06:23:48.482Z,1.00
2023-03-12T06:26:16.918Z,1.00
2023-03-12T06:28:44.726Z,1.00
2023-03-12T06:31:11.780Z,1.00
2023-03-12T06:33:38.742Z,1.00
2023-03-12T06:36:07.801Z,1.00
2023-03-12T06:38:35.802Z,1.00
2023-03-12T06:41:05.720Z,1.00
2023-03-12T06:43:34.201Z,1.00
2023-03-12T06:46:02.190Z,1.00
2023-03-12T06:48:31.033Z,1.00
2023-03-12T06:50:57.925Z,1.00
2023-03-12T06:53:25.905Z,1.00
2023-03-12T06:55:52.830Z,1.00
2023-03-12T06:58:19.846Z,1.00
2023-03-12T07:00:46.851Z,1.00
2023-03-12T07:03:13.786Z,1.00
2023-03-12T07:05:44.048Z,1.00
2023-03-12T07:08:10.975Z,1.00
2023-03-12T07:10:38.045Z,1.00
2023-03-12T07:13:04.874Z,1.00
2023-03-12T07:15:31.883Z,1.00
2023-03-12T07:18:11.877Z,1.00
2023-03-12T07:20:40.945Z,1.00
2023-03-12T07:23:08.431Z,1.00
2023-03-12T07:25:36.894Z,1.00
2023-03-12T07:28:04.424Z,1.00
2023-03-12T07:30:34.606Z,1.00
2023-03-12T07:33:06.592Z,1.00
2023-03-12T07:35:34.114Z,1.00
2023-03-12T07:38:01.909Z,1.00
2023-03-12T07:40:29.367Z,1.00
2023-03-12T07:42:56.461Z,1.00
2023-03-12T07:45:24.870Z,1.00
2023-03-12T07:47:51.933Z,1.00
2023-03-12T07:50:19.580Z,1.00
2023-03-12T07:52:47.039Z,1.00
2023-03-12T07:55:14.225Z,1.00
2023-03-12T07:57:41.266Z,1.00
2023-03-12T08:00:10.556Z,2.80
2023-03-12T08:02:38.958Z,9.20
2023-03-12T08:05:06.485Z,17.50
2023-03-12T08:07:35.244Z,20.20
2023-03-12T08:10:05.005Z,26.40
2023-03-12T08:12:32.318Z,27.70
2023-03-12T08:14:59.448Z,31.00
2023-03-12T08:17:26.382Z,31.10
2023-03-12T08:19:53.274Z,32.60
2023-03-12T08:22:20.137Z,34.70
2023-03-12T08:24:47.597Z,35.20
2023-03-12T08:27:14.680Z,37.30
2023-03-12T08:29:42.075Z,40.40
2023-03-12T08:32:10.805Z,45.00
2023-03-12T08:34:37.967Z,48.30
2023-03-12T08:37:05.898Z,52.20
2023-03-12T08:39:33.211Z,57.40
2023-03-12T08:42:00.822Z,63.30
2023-03-12T08:44:28.190Z,69.00
2023-03-12T08:46:55.190Z,72.30
2023-03-12T08:49:22.954Z,73.20
2023-03-12T08:51:51.926Z,73.50
2023-03-12T08:54:20.087Z,76.30
2023-03-12T08:56:52.010Z,75.30
2023-03-12T08:59:20.754Z,73.60
2023-03-12T09:01:47.826Z,75.10
2023-03-12T09:04:15.204Z,74.50
2023-03-12T09:06:42.244Z,78.50
2023-03-12T09:09:09.253Z,80.00
2023-03-12T09:11:39.657Z,81.40
2023-03-12T09:16:53.800Z,81.70
2023-03-12T09:19:21.223Z,83.80
2023-03-12T09:21:48.118Z,82.60
2023-03-12T09:24:15.086Z,81.70
2023-03-12T09:26:42.445Z,78.40
2023-03-12T09:29:09.421Z,75.40
2023-03-12T09:31:36.667Z,76.10
2023-03-12T09:34:04.800Z,76.20
2023-03-12T09:36:32.490Z,77.00
2023-03-12T09:38:59.377Z,77.00
2023-03-12T09:41:32.773Z,75.00
2023-03-12T09:44:34.677Z,74.80
2023-03-12T09:47:12.627Z,74.80
2023-03-12T09:49:49.568Z,78.80
2023-03-12T09:52:29.597Z,78.10
2023-03-12T09:55:23.144Z,82.60
2023-03-12T09:57:51.769Z,80.40
2023-03-12T10:00:21.732Z,78.70
2023-03-12T10:02:51.744Z,78.70
2023-03-12T10:05:51.004Z,77.00
2023-03-12T10:08:39.779Z,74.30
2023-03-12T10:11:48.497Z,78.50
2023-03-12T10:14:54.418Z,81.80
2023-03-12T10:18:35.360Z,81.90
2023-03-12T10:21:50.522Z,77.10
2023-03-12T10:24:46.653Z,76.80
2023-03-12T10:27:16.668Z,77.30
2023-03-12T10:32:41.660Z,85.40
2023-03-12T10:35:16.392Z,86.90
2023-03-12T10:37:59.571Z,90.30
2023-03-12T10:40:30.209Z,92.30
2023-03-12T10:48:45.486Z,99.70
2023-03-12T10:51:13.316Z,99.90
2023-03-12T10:53:48.001Z,99.90
2023-03-12T10:56:18.933Z,99.90
2023-03-12T10:58:51.194Z,99.90
2023-03-12T11:01:26.691Z,99.90
2023-03-12T11:04:08.374Z,99.90
2023-03-12T11:06:35.422Z,99.90
2023-03-12T11:09:20.576Z,99.90
2023-03-12T11:11:49.445Z,99.90
2023-03-12T11:14:19.306Z,99.90
2023-03-12T11:16:46.438Z,99.90
2023-03-12T11:19:25.941Z,99.90
2023-03-12T11:22:01.956Z,99.90
2023-03-12T11:24:29.181Z,99.90
2023-03-12T11:27:27.509Z,99.90
2023-03-12T11:29:55.125Z,99.90
2023-03-12T11:32:37.483Z,99.90
2023-03-12T11:35:10.852Z,99.90
2023-03-12T11:38:20.091Z,99.90
2023-03-12T11:41:16.538Z,99.90
2023-03-12T11:44:04.225Z,99.90
2023-03-12T11:46:57.352Z,99.90
2023-03-12T11:50:05.438Z,99.90
2023-03-12T11:53:16.726Z,99.90
2023-03-12T11:56:16.656Z,99.90
2023-03-12T11:59:08.841Z,99.90
2023-03-12T12:01:59.695Z,99.90
2023-03-12T12:04:53.487Z,99.90
2023-03-12T12:08:03.652Z,99.90
2023-03-12T12:10:42.357Z,99.90
2023-03-12T12:13:39.059Z,99.90
2023-03-12T12:16:41.640Z,99.90
2023-03-12T13:01:00.606Z,99.90
2023-03-12T13:03:29.369Z,99.90
2023-03-12T13:06:05.640Z,99.90
2023-03-12T13:09:02.457Z,99.90
2023-03-12T13:11:39.726Z,99.90
2023-03-12T13:14:13.912Z,99.90
2023-03-12T13:16:43.170Z,99.90
2023-03-12T13:19:24.987Z,99.90
2023-03-12T13:22:31.276Z,99.90
2023-03-12T13:25:37.093Z,99.90
2023-03-12T13:28:49.324Z,99.90
2023-03-12T13:31:49.851Z,99.90
2023-03-12T13:34:19.388Z,99.90
2023-03-12T13:37:07.589Z,99.90
2023-03-12T13:39:36.300Z,99.90
2023-03-12T13:42:42.464Z,99.90
2023-03-12T13:45:28.549Z,99.90
2023-03-12T13:48:02.067Z,99.90
2023-03-12T13:50:30.894Z,99.90
2023-03-12T13:53:14.311Z,99.90
2023-03-12T13:55:49.944Z,99.90
2023-03-12T13:58:23.740Z,99.90
2023-03-12T14:01:05.903Z,99.90
2023-03-12T14:03:39.938Z,99.90
2023-03-12T14:06:14.256Z,99.90
2023-03-12T14:09:34.345Z,99.90
2023-03-12T14:12:40.571Z,99.90
2023-03-12T14:15:30.792Z,99.90
2023-03-12T14:18:01.543Z,99.90
2023-03-12T14:20:29.879Z,99.90
2023-03-12T14:23:04.437Z,99.90
2023-03-12T14:25:44.790Z,99.90
2023-03-12T14:28:20.162Z,97.00
2023-03-12T14:31:14.979Z,94.90
2023-03-12T14:33:57.702Z,95.40
2023-03-12T14:36:29.272Z,95.00
2023-03-12T14:39:10.624Z,96.20
2023-03-12T14:41:44.891Z,95.80
2023-03-12T14:44:23.139Z,95.70
2023-03-12T14:47:04.512Z,95.70
2023-03-12T14:49:32.423Z,93.90
2023-03-12T14:51:59.335Z,92.60
2023-03-12T14:54:28.426Z,91.80
2023-03-12T14:56:55.566Z,91.50
2023-03-12T14:59:33.749Z,91.60
2023-03-12T15:02:18.809Z,91.60
2023-03-12T15:04:47.359Z,90.00
2023-03-12T15:07:18.696Z,89.70
2023-03-12T15:09:50.006Z,89.70
2023-03-12T15:12:29.956Z,88.90
2023-03-12T15:15:09.840Z,87.30
2023-03-12T15:17:37.287Z,85.50
2023-03-12T15:20:09.922Z,85.00
2023-03-12T15:22:37.375Z,85.80
2023-03-12T15:25:26.204Z,84.70
2023-03-12T15:28:31.618Z,85.20
2023-03-12T15:31:14.632Z,85.00
2023-03-12T15:33:45.040Z,85.40
2023-03-12T15:36:31.244Z,86.50
2023-03-12T15:39:05.941Z,85.90
2023-03-12T15:41:48.951Z,85.30
2023-03-12T15:44:26.084Z,85.20
2023-03-12T15:47:06.235Z,86.50
2023-03-12T15:49:36.492Z,87.90
2023-03-12T15:52:07.817Z,86.70
2023-03-12T15:54:38.863Z,86.50
2023-03-12T15:57:19.665Z,86.90
2023-03-12T16:00:07.110Z,88.70
2023-03-12T16:02:49.395Z,87.00
2023-03-12T16:05:17.048Z,87.30
2023-03-12T16:07:44.045Z,87.10
2023-03-12T16:10:16.900Z,85.20
2023-03-12T16:12:45.281Z,84.40
2023-03-12T16:15:18.282Z,85.00
2023-03-12T16:17:45.256Z,83.90
2023-03-12T16:20:14.584Z,82.90
2023-03-12T16:22:41.714Z,83.00
2023-03-12T16:25:11.982Z,81.30
2023-03-12T16:27:47.244Z,77.30
2023-03-12T16:30:32.218Z,76.00
2023-03-12T16:33:01.376Z,75.30
2023-03-12T16:35:31.319Z,73.50
2023-03-12T16:38:02.802Z,73.20
2023-03-12T16:40:35.405Z,72.50
2023-03-12T16:43:07.506Z,70.70
2023-03-12T16:45:36.515Z,69.80
2023-03-12T16:48:06.089Z,68.00
2023-03-12T16:50:33.274Z,66.30
2023-03-12T16:53:00.838Z,62.00
2023-03-12T16:55:30.516Z,60.80
2023-03-12T16:58:02.335Z,58.70
2023-03-12T17:00:32.778Z,58.00
2023-03-12T17:02:59.950Z,53.90
2023-03-12T17:05:28.575Z,51.60
2023-03-12T17:07:56.147Z,52.20
2023-03-12T17:10:26.385Z,53.50
2023-03-12T17:12:53.817Z,53.90
2023-03-12T17:15:23.491Z,54.10
2023-03-12T17:17:50.618Z,53.40
2023-03-12T17:20:19.763Z,52.70
2023-03-12T17:22:47.054Z,54.10
2023-03-12T17:25:28.462Z,53.10
2023-03-12T17:27:59.207Z,52.20
2023-03-12T17:30:31.475Z,49.80
2023-03-12T17:33:09.385Z,49.00
2023-03-12T17:35:37.003Z,49.60
2023-03-12T17:38:04.356Z,49.90
2023-03-12T17:40:31.761Z,44.40
2023-03-12T17:42:58.804Z,42.80
2023-03-12T17:45:25.896Z,41.10
2023-03-12T17:47:52.823Z,38.50
2023-03-12T17:50:20.049Z,36.00
2023-03-12T17:52:46.976Z,36.00
2023-03-12T17:55:14.070Z,33.60
2023-03-12T17:57:41.247Z,33.60
2023-03-12T18:00:13.003Z,31.80
2023-03-12T18:02:44.454Z,30.50
2023-03-12T18:05:12.400Z,30.50
2023-03-12T18:07:40.175Z,31.00
2023-03-12T18:10:11.053Z,30.50
2023-03-12T18:12:39.145Z,30.50
2023-03-12T18:15:12.484Z,31.20
2023-03-12T18:17:40.466Z,31.40
2023-03-12T18:20:12.472Z,31.40
2023-03-12T18:22:40.362Z,28.80
2023-03-12T18:25:08.415Z,28.20
2023-03-12T18:27:35.527Z,27.90
2023-03-12T18:30:02.509Z,26.70
2023-03-12T18:32:29.606Z,26.20
2023-03-12T18:34:57.720Z,25.80
2023-03-12T18:37:24.605Z,25.20
2023-03-12T18:39:51.509Z,25.60
2023-03-12T18:42:18.605Z,24.80
2023-03-12T18:44:45.629Z,25.30
2023-03-12T18:47:12.539Z,24.70
2023-03-12T18:49:39.549Z,24.00
2023-03-12T18:52:06.542Z,24.00
2023-03-12T18:54:33.810Z,24.50
2023-03-12T18:57:01.145Z,24.50
2023-03-12T18:59:30.287Z,23.60
2023-03-12T19:01:58.177Z,24.00
2023-03-12T19:04:25.980Z,24.50
2023-03-12T19:06:53.031Z,25.40
2023-03-12T19:09:20.208Z,25.40
2023-03-12T19:11:48.210Z,25.80
2023-03-12T19:14:16.241Z,24.70
2023-03-12T19:16:43.302Z,24.90
2023-03-12T19:19:10.403Z,26.00
2023-03-12T19:21:38.006Z,26.30
2023-03-12T19:24:05.275Z,26.40
2023-03-12T19:26:32.262Z,25.40
2023-03-12T19:28:59.194Z,25.50
2023-03-12T19:31:26.527Z,26.80
2023-03-12T19:33:53.617Z,26.20
2023-03-12T19:36:20.651Z,27.70
2023-03-12T19:38:47.561Z,28.10
2023-03-12T19:41:14.516Z,28.90
2023-03-12T19:43:41.453Z,29.20
2023-03-12T19:46:08.769Z,29.70
2023-03-12T19:48:35.817Z,30.20
2023-03-12T19:51:10.578Z,30.70
2023-03-12T19:53:38.273Z,30.60
2023-03-12T19:56:05.980Z,30.80
2023-03-12T19:58:32.984Z,30.00
2023-03-12T20:01:03.754Z,30.00
2023-03-12T20:03:32.772Z,30.80
2023-03-12T20:06:00.151Z,31.40
2023-03-12T20:08:32.876Z,32.60
2023-03-12T20:11:10.658Z,32.10
2023-03-12T20:13:40.172Z,31.80
2023-03-12T20:16:08.191Z,33.10
2023-03-12T20:18:35.187Z,34.30
2023-03-12T20:21:02.209Z,33.90
2023-03-12T20:23:29.279Z,34.20
2023-03-12T20:25:56.343Z,33.80
2023-03-12T20:28:23.248Z,34.60
2023-03-12T20:30:50.215Z,36.00
2023-03-12T20:33:17.345Z,36.10
2023-03-12T20:35:44.368Z,33.30
2023-03-12T20:38:11.638Z,33.40
2023-03-12T20:40:38.511Z,33.70
2023-03-12T20:43:05.462Z,34.00
2023-03-12T20:45:33.641Z,33.80
2023-03-12T20:48:00.700Z,33.30
2023-03-12T20:50:28.267Z,32.90
2023-03-12T20:52:55.377Z,31.20
2023-03-12T20:55:22.452Z,31.00
2023-03-12T20:57:49.428Z,31.20
2023-03-12T21:00:16.819Z,30.20
2023-03-12T21:02:43.812Z,30.00
2023-03-12T21:05:11.503Z,30.60
2023-03-12T21:07:38.527Z,30.60
2023-03-12T21:10:06.332Z,30.70
2023-03-12T21:12:33.311Z,30.60
2023-03-12T21:15:06.253Z,30.60
2023-03-12T21:17:34.576Z,31.20
2023-03-12T21:20:03.286Z,31.80
2023-03-12T21:22:32.008Z,31.70
2023-03-12T21:24:59.224Z,31.70
2023-03-12T21:27:26.227Z,30.70
2023-03-12T21:29:54.054Z,31.10
2023-03-12T21:32:22.778Z,30.70
2023-03-12T21:34:50.041Z,30.60
2023-03-12T21:37:17.582Z,30.60
2023-03-12T21:39:44.629Z,30.70
2023-03-12T21:42:11.596Z,30.60
2023-03-12T21:44:38.812Z,30.10
2023-03-12T21:47:06.206Z,28.60
2023-03-12T21:49:34.909Z,29.00
2023-03-12T21:52:03.460Z,29.00
2023-03-12T21:54:34.357Z,29.40
2023-03-12T21:57:02.934Z,28.10
2023-03-12T21:59:30.481Z,27.80
2023-03-12T22:01:58.636Z,28.00
2023-03-12T22:04:26.126Z,27.60
2023-03-12T22:06:53.205Z,27.50
2023-03-12T22:09:20.109Z,28.30
2023-03-12T22:11:46.973Z,28.00
2023-03-12T22:14:13.932Z,27.70
2023-03-12T22:16:40.857Z,26.40
2023-03-12T22:19:08.603Z,26.20
2023-03-12T22:21:37.152Z,25.90
2023-03-12T22:24:04.633Z,26.10
2023-03-12T22:26:31.477Z,26.30
2023-03-12T22:28:58.487Z,25.50
2023-03-12T22:31:28.256Z,25.60
2023-03-12T22:33:56.296Z,25.10
2023-03-12T22:36:23.479Z,24.80
2023-03-12T22:38:50.761Z,25.50
2023-03-12T22:41:28.885Z,26.30
2023-03-12T22:43:57.782Z,26.30
2023-03-12T22:46:26.037Z,27.00
2023-03-12T22:48:55.943Z,27.70
2023-03-12T22:51:23.817Z,27.30
2023-03-12T22:53:51.137Z,27.00
2023-03-12T22:56:18.107Z,27.90
2023-03-12T22:58:45.264Z,28.90
2023-03-12T23:01:21.313Z,28.40
2023-03-12T23:03:49.384Z,28.20
2023-03-12T23:06:19.815Z,26.90
2023-03-12T23:08:47.901Z,25.90
2023-03-12T23:11:16.377Z,26.10
2023-03-12T23:13:44.937Z,26.70
2023-03-12T23:16:18.237Z,26.60
2023-03-12T23:18:46.739Z,26.20
2023-03-12T23:21:19.143Z,25.70
2023-03-12T23:23:46.600Z,25.30
2023-03-12T23:26:19.521Z,25.70
2023-03-12T23:28:47.526Z,25.80
2023-03-12T23:31:16.372Z,25.60
2023-03-12T23:33:43.669Z,25.90
2023-03-12T23:36:21.900Z,25.40
2023-03-12T23:38:49.747Z,24.90
2023-03-12T23:41:22.826Z,24.60
2023-03-12T23:43:50.584Z,25.10
2023-03-12T23:46:18.690Z,25.40
2023-03-12T23:48:45.876Z,24.00
2023-03-12T23:51:18.558Z,23.90
2023-03-12T23:53:48.359Z,23.60
2023-03-12T23:56:18.252Z,23.70
2023-03-12T23:58:45.623Z,24.70
